MET'MAP v2.0
soon released !

Expected late october,
this new version will be
more efficient, smarter,
and hosted on a brand new
server x3 powerfull...
...and still free !


Not compatible ?
Try the mobile version !

LOG IN : | Subscribe | Disclaimer | Who is Orbifly ? |
ICAO code :

TAF - ENCN Kristiansand Kjevik - 27 May 2020 11:58 UTC - Data Source NOAA   


- Airport Elevation : 57 ft
- IATA code : KRS
- No reported NOTAMs.


ENCN - Kristiansand Kjevik

Latest METAR recorded : 2015/08/11 07:50 ENCN 110750Z 20012KT 9999 -SHRA BKN006 17/16 Q1015
TAF TAF ENCN
Valid from the 27 at 09:00 until the 27 at 18:00 UTC


270800Z 2709/2718 33012KT 9999 FEW030

Source NOAA


MET'MAP, your aeronautical weather chart ! - Copyright ORBIFLY December 2007

Programming & Development : Alexandra Zaïnal
Co-Developer : Marc-Olivier Méhu
Technical & hardware support : Manuel Goepfert
Concept & Financing : Baudouin d'Aumeries